createdAt,value
2017-04-29T00:01:52.739Z,84.50
2017-04-29T00:04:20.989Z,84.50
2017-04-29T00:06:49.877Z,84.80
2017-04-29T00:09:19.010Z,84.90
2017-04-29T00:11:47.235Z,84.90
2017-04-29T00:14:16.686Z,85.10
2017-04-29T00:16:45.329Z,85.10
2017-04-29T00:19:13.969Z,85.00
2017-04-29T00:21:42.494Z,85.00
2017-04-29T00:24:11.146Z,85.20
2017-04-29T00:26:39.791Z,85.30
2017-04-29T00:29:08.542Z,85.20
2017-04-29T00:31:37.190Z,85.30
2017-04-29T00:34:05.843Z,85.20
2017-04-29T00:36:34.522Z,85.50
2017-04-29T00:39:02.781Z,85.50
2017-04-29T00:41:31.427Z,85.70
2017-04-29T00:44:00.093Z,85.50
2017-04-29T00:46:28.733Z,85.40
2017-04-29T00:48:57.389Z,85.20
2017-04-29T00:51:26.061Z,85.10
2017-04-29T00:53:55.073Z,84.00
2017-04-29T00:56:23.725Z,82.60
2017-04-29T00:58:52.016Z,82.60
2017-04-29T01:01:21.029Z,81.80
2017-04-29T01:03:49.680Z,81.40
2017-04-29T01:06:18.328Z,81.40
2017-04-29T01:08:46.574Z,81.40
2017-04-29T01:11:15.205Z,81.20
2017-04-29T01:13:44.016Z,81.50
2017-04-29T01:16:13.026Z,81.30
2017-04-29T01:18:41.275Z,81.30
2017-04-29T01:21:09.557Z,81.10
2017-04-29T01:23:38.565Z,81.40
2017-04-29T01:26:07.206Z,81.20
2017-04-29T01:28:35.884Z,80.80
2017-04-29T01:31:04.514Z,80.90
2017-04-29T01:33:33.516Z,81.80
2017-04-29T01:36:02.324Z,82.40
2017-04-29T01:38:30.574Z,82.40
2017-04-29T01:40:58.826Z,83.50
2017-04-29T01:43:28.141Z,84.30
2017-04-29T01:45:56.786Z,84.40
2017-04-29T01:48:25.421Z,84.80
2017-04-29T01:50:54.390Z,85.10
2017-04-29T01:53:23.401Z,85.30
2017-04-29T01:55:52.050Z,85.40
2017-04-29T01:58:20.705Z,85.40
2017-04-29T02:00:48.926Z,85.40
2017-04-29T02:03:17.173Z,85.40
2017-04-29T02:05:54.979Z,85.40
2017-04-29T02:08:23.990Z,85.30
2017-04-29T02:10:52.631Z,85.30
2017-04-29T02:13:21.314Z,85.30
2017-04-29T02:15:49.957Z,85.40
2017-04-29T02:18:18.189Z,85.40
2017-04-29T02:20:46.861Z,85.40
2017-04-29T02:23:15.508Z,85.50
2017-04-29T02:25:44.137Z,85.40
2017-04-29T02:28:12.792Z,85.40
2017-04-29T02:30:41.443Z,85.20
2017-04-29T02:33:10.078Z,85.20
2017-04-29T02:35:38.755Z,85.40
2017-04-29T02:38:07.390Z,84.90
2017-04-29T02:40:36.035Z,84.90
2017-04-29T02:43:04.691Z,84.80
2017-04-29T02:45:33.331Z,85.00
2017-04-29T02:48:01.967Z,84.80
2017-04-29T02:50:30.637Z,85.20
2017-04-29T02:52:59.274Z,83.90
2017-04-29T02:55:27.909Z,84.50
2017-04-29T02:57:56.737Z,85.70
2017-04-29T03:00:24.982Z,85.60
2017-04-29T03:02:53.223Z,85.50
2017-04-29T03:05:21.877Z,83.90
2017-04-29T03:07:50.884Z,83.70
2017-04-29T03:10:19.118Z,83.60
2017-04-29T03:12:47.788Z,85.10
2017-04-29T03:15:16.415Z,86.10
2017-04-29T03:17:45.049Z,86.30
2017-04-29T03:20:13.706Z,85.90
2017-04-29T03:22:42.590Z,86.00
2017-04-29T03:25:10.839Z,86.00
2017-04-29T03:27:39.495Z,85.80
2017-04-29T03:30:08.134Z,85.70
2017-04-29T03:32:36.778Z,85.50
2017-04-29T03:35:05.566Z,85.50
2017-04-29T03:37:33.802Z,85.50
2017-04-29T03:40:02.447Z,85.30
2017-04-29T03:42:31.416Z,85.50
2017-04-29T03:45:00.420Z,85.40
2017-04-29T03:47:29.063Z,85.50
2017-04-29T03:49:57.326Z,85.50
2017-04-29T03:52:25.971Z,85.60
2017-04-29T03:54:54.621Z,85.80
2017-04-29T03:57:23.302Z,86.10
2017-04-29T03:59:52.313Z,86.80
2017-04-29T04:02:20.949Z,87.30
2017-04-29T04:04:49.626Z,87.50
2017-04-29T04:07:18.288Z,87.60
2017-04-29T04:09:46.913Z,87.20
2017-04-29T04:12:15.578Z,87.10
2017-04-29T04:14:44.214Z,87.00
2017-04-29T04:17:12.854Z,87.00
2017-04-29T04:19:41.119Z,87.10
2017-04-29T04:24:44.886Z,86.80
2017-04-29T04:27:13.521Z,86.60
2017-04-29T04:29:42.159Z,86.60
2017-04-29T04:32:11.131Z,86.80
2017-04-29T04:34:39.770Z,86.80
2017-04-29T04:37:08.406Z,86.60
2017-04-29T04:39:37.084Z,86.80
2017-04-29T04:42:05.322Z,86.80
2017-04-29T04:44:33.572Z,87.00
2017-04-29T04:47:01.854Z,87.10
2017-04-29T04:49:30.490Z,87.20
2017-04-29T04:51:59.134Z,87.10
2017-04-29T04:54:28.157Z,87.10
2017-04-29T04:56:56.410Z,87.10
2017-04-29T04:59:25.053Z,86.90
2017-04-29T05:01:53.722Z,86.70
2017-04-29T05:04:22.357Z,86.90
2017-04-29T05:06:50.998Z,86.70
2017-04-29T05:09:19.663Z,86.50
2017-04-29T05:11:48.298Z,86.70
2017-04-29T05:14:16.930Z,86.40
2017-04-29T05:16:45.801Z,86.40
2017-04-29T05:19:14.439Z,86.00
2017-04-29T05:21:44.050Z,86.00
2017-04-29T05:24:12.842Z,86.00
2017-04-29T05:26:41.478Z,86.10
2017-04-29T05:29:10.109Z,86.20
2017-04-29T05:31:39.030Z,86.00
2017-04-29T05:34:07.270Z,86.00
2017-04-29T05:36:35.912Z,86.60
2017-04-29T05:39:04.883Z,86.10
2017-04-29T05:41:33.525Z,86.30
2017-04-29T05:44:02.162Z,86.00
2017-04-29T05:46:31.230Z,85.80
2017-04-29T05:49:00.282Z,85.40
2017-04-29T05:51:28.501Z,85.40
2017-04-29T05:53:57.299Z,84.40
2017-04-29T05:56:25.933Z,85.10
2017-04-29T05:58:54.928Z,84.40
2017-04-29T06:01:23.605Z,85.50
2017-04-29T06:03:52.251Z,84.50
2017-04-29T06:06:20.498Z,84.50
2017-04-29T06:08:48.774Z,84.50
2017-04-29T06:11:17.802Z,83.40
2017-04-29T06:13:46.043Z,83.40
2017-04-29T06:16:14.458Z,83.10
2017-04-29T06:18:43.091Z,81.80
2017-04-29T06:21:12.103Z,80.70
2017-04-29T06:23:41.086Z,80.10
2017-04-29T06:26:10.586Z,81.90
2017-04-29T06:28:39.594Z,80.30
2017-04-29T06:31:08.244Z,80.30
2017-04-29T06:33:36.475Z,80.30
2017-04-29T06:36:05.109Z,79.60
2017-04-29T06:38:33.597Z,79.60
2017-04-29T06:41:01.845Z,79.30
2017-04-29T06:43:30.481Z,79.70
2017-04-29T06:45:59.160Z,78.10
2017-04-29T06:48:27.795Z,79.00
2017-04-29T06:50:56.034Z,79.00
2017-04-29T06:53:24.717Z,78.10
2017-04-29T06:55:53.342Z,77.50
2017-04-29T06:58:21.599Z,77.50
2017-04-29T07:00:50.541Z,75.90
2017-04-29T07:03:19.171Z,77.00
2017-04-29T07:05:47.817Z,76.60
2017-04-29T07:08:16.783Z,76.60
2017-04-29T07:10:45.031Z,76.60
2017-04-29T07:13:13.663Z,74.10
2017-04-29T07:15:42.546Z,72.70
2017-04-29T07:18:11.182Z,74.40
2017-04-29T07:20:39.823Z,74.60
2017-04-29T07:23:08.329Z,74.70
2017-04-29T07:25:36.973Z,75.00
2017-04-29T07:28:05.224Z,75.00
2017-04-29T07:30:34.264Z,72.20
2017-04-29T07:33:02.912Z,72.70
2017-04-29T07:35:31.545Z,72.60
2017-04-29T07:38:00.578Z,72.80
2017-04-29T07:40:29.589Z,71.70
2017-04-29T07:42:58.235Z,71.70
2017-04-29T07:45:27.150Z,69.30
2017-04-29T07:47:55.779Z,68.40
2017-04-29T07:50:24.424Z,68.30
2017-04-29T07:52:53.409Z,68.60
2017-04-29T07:55:22.038Z,68.30
2017-04-29T07:57:50.676Z,68.00
2017-04-29T08:00:19.329Z,66.90
2017-04-29T08:02:47.588Z,66.90
2017-04-29T08:05:16.226Z,66.40
2017-04-29T08:07:44.893Z,66.00
2017-04-29T08:10:13.537Z,65.40
2017-04-29T08:12:42.189Z,63.70
2017-04-29T08:15:11.038Z,62.10
2017-04-29T08:17:39.762Z,64.00
2017-04-29T08:20:08.366Z,64.50
2017-04-29T08:22:37.185Z,65.50
2017-04-29T08:25:06.212Z,64.10
2017-04-29T08:27:34.450Z,64.10
2017-04-29T08:30:03.913Z,63.80
2017-04-29T08:32:32.537Z,62.90
2017-04-29T08:35:01.170Z,64.70
2017-04-29T08:37:30.370Z,69.20
2017-04-29T08:39:59.504Z,69.20
2017-04-29T08:42:28.502Z,74.90
2017-04-29T08:44:57.553Z,75.80
2017-04-29T08:47:26.198Z,75.80
2017-04-29T08:49:54.834Z,76.20
2017-04-29T08:52:23.512Z,74.70
2017-04-29T08:54:51.766Z,74.70
2017-04-29T08:57:20.415Z,75.60
2017-04-29T08:59:49.069Z,73.00
2017-04-29T09:02:18.099Z,72.80
2017-04-29T09:04:46.742Z,71.70
2017-04-29T09:07:15.703Z,71.90
2017-04-29T09:09:44.343Z,70.90
2017-04-29T09:12:14.536Z,70.00
2017-04-29T09:14:43.162Z,68.10
2017-04-29T09:17:11.818Z,68.20
2017-04-29T09:19:41.260Z,66.80
2017-04-29T09:22:09.885Z,65.60
2017-04-29T09:24:38.794Z,65.70
2017-04-29T09:27:07.820Z,64.80
2017-04-29T09:29:36.449Z,65.80
2017-04-29T09:32:04.721Z,65.80
2017-04-29T09:34:33.468Z,66.00
2017-04-29T09:37:02.094Z,67.30
2017-04-29T09:39:30.754Z,66.30
2017-04-29T09:41:59.458Z,66.30
2017-04-29T09:44:28.089Z,65.30
2017-04-29T09:46:56.754Z,65.50
2017-04-29T09:49:25.396Z,65.70
2017-04-29T09:51:54.033Z,65.20
2017-04-29T09:54:22.942Z,63.70
2017-04-29T09:56:51.845Z,64.70
2017-04-29T09:59:20.493Z,65.30
2017-04-29T10:01:48.759Z,65.30
2017-04-29T10:04:17.403Z,62.00
2017-04-29T10:06:46.029Z,60.70
2017-04-29T10:09:14.317Z,60.70
2017-04-29T10:11:42.942Z,61.50
2017-04-29T10:14:11.570Z,61.20
2017-04-29T10:16:40.560Z,61.00
2017-04-29T10:19:08.801Z,61.00
2017-04-29T10:21:37.459Z,55.10
2017-04-29T10:24:06.285Z,52.50
2017-04-29T10:26:34.541Z,52.50
2017-04-29T10:29:02.781Z,52.70
2017-04-29T10:31:31.646Z,50.00
2017-04-29T10:34:00.464Z,51.90
2017-04-29T10:36:29.102Z,49.80
2017-04-29T10:38:57.394Z,49.80
2017-04-29T10:41:26.026Z,55.70
2017-04-29T10:43:54.686Z,56.60
2017-04-29T10:46:23.337Z,57.90
2017-04-29T10:48:51.980Z,58.80
2017-04-29T10:51:21.751Z,57.60
2017-04-29T10:53:50.643Z,57.40
2017-04-29T10:56:19.625Z,55.10
2017-04-29T10:58:47.861Z,55.10
2017-04-29T11:01:16.152Z,51.90
2017-04-29T11:03:44.869Z,51.30
2017-04-29T11:06:13.663Z,52.10
2017-04-29T11:08:42.350Z,53.50
2017-04-29T11:11:10.999Z,54.10
2017-04-29T11:13:40.655Z,54.60
2017-04-29T11:16:09.332Z,54.00
2017-04-29T11:18:38.051Z,54.30
2017-04-29T11:21:07.047Z,53.10
2017-04-29T11:23:35.722Z,53.10
2017-04-29T11:26:04.744Z,50.60
2017-04-29T11:28:33.413Z,49.70
2017-04-29T11:31:02.068Z,47.30
2017-04-29T11:33:30.842Z,46.80
2017-04-29T11:35:59.327Z,46.80
2017-04-29T11:38:28.078Z,46.10
2017-04-29T11:40:56.318Z,46.10
2017-04-29T11:43:25.178Z,49.10
2017-04-29T11:45:53.414Z,49.10
2017-04-29T11:48:22.368Z,52.50
2017-04-29T11:50:51.249Z,53.60
2017-04-29T11:53:19.898Z,55.90
2017-04-29T11:55:48.534Z,57.10
2017-04-29T11:58:17.286Z,58.70
2017-04-29T12:00:46.782Z,59.50
2017-04-29T12:03:15.415Z,60.30
2017-04-29T12:05:44.382Z,60.90
2017-04-29T12:08:13.029Z,61.90
2017-04-29T12:10:41.816Z,61.90
2017-04-29T12:13:10.469Z,61.90
2017-04-29T12:15:39.111Z,61.50
2017-04-29T12:18:08.260Z,59.70
2017-04-29T12:20:37.090Z,60.50
2017-04-29T12:23:06.113Z,60.60
2017-04-29T12:25:34.350Z,60.60
2017-04-29T12:28:03.474Z,61.60
2017-04-29T12:30:32.197Z,62.40
2017-04-29T12:33:00.860Z,62.40
2017-04-29T12:35:29.553Z,62.90
2017-04-29T12:37:58.194Z,63.10
2017-04-29T12:40:26.464Z,63.10
2017-04-29T12:42:55.143Z,65.10
2017-04-29T12:45:24.169Z,65.70
2017-04-29T12:47:52.801Z,65.40
2017-04-29T12:50:21.474Z,66.20
2017-04-29T12:52:49.705Z,66.20
2017-04-29T12:55:17.945Z,65.90
2017-04-29T12:57:46.316Z,66.00
2017-04-29T13:00:14.949Z,68.20
2017-04-29T13:02:43.606Z,68.00
2017-04-29T13:05:12.642Z,67.60
2017-04-29T13:07:41.302Z,67.70
2017-04-29T13:10:09.958Z,68.50
2017-04-29T13:12:38.420Z,68.60
2017-04-29T13:15:07.433Z,67.70
2017-04-29T13:17:36.081Z,63.30
2017-04-29T13:20:05.115Z,63.00
2017-04-29T13:22:33.996Z,63.10
2017-04-29T13:25:02.645Z,62.40
2017-04-29T13:27:31.463Z,62.60
2017-04-29T13:29:59.709Z,62.60
2017-04-29T13:32:28.340Z,62.30
2017-04-29T13:34:56.617Z,62.30
2017-04-29T13:37:25.270Z,54.40
2017-04-29T13:39:54.283Z,51.40
2017-04-29T13:42:24.106Z,50.80
2017-04-29T13:44:52.610Z,50.80
2017-04-29T13:47:21.269Z,48.20
2017-04-29T13:49:50.412Z,46.80
2017-04-29T13:52:21.043Z,46.80
2017-04-29T13:54:50.101Z,49.30
2017-04-29T13:57:19.174Z,49.00
2017-04-29T13:59:47.930Z,46.90
2017-04-29T14:02:17.153Z,46.90
2017-04-29T14:04:45.777Z,47.60
2017-04-29T14:07:14.427Z,52.40
2017-04-29T14:09:43.090Z,55.80
2017-04-29T14:12:12.127Z,57.80
2017-04-29T14:14:40.769Z,59.00
2017-04-29T14:17:09.238Z,59.00
2017-04-29T14:19:37.861Z,60.90
2017-04-29T14:22:06.554Z,65.10
2017-04-29T14:24:35.298Z,68.20
2017-04-29T14:27:03.664Z,68.20
2017-04-29T14:29:32.306Z,68.20
2017-04-29T14:32:01.387Z,68.70
2017-04-29T14:34:29.639Z,68.70
2017-04-29T14:36:59.878Z,71.00
2017-04-29T14:39:28.771Z,70.10
2017-04-29T14:41:58.329Z,68.00
2017-04-29T14:44:26.566Z,68.00
2017-04-29T14:46:54.839Z,67.50
2017-04-29T14:49:25.342Z,65.70
2017-04-29T14:51:54.097Z,65.40
2017-04-29T14:54:24.123Z,64.60
2017-04-29T14:56:55.545Z,66.50
2017-04-29T14:59:24.586Z,64.30
2017-04-29T15:01:53.253Z,64.50
2017-04-29T15:04:25.080Z,63.30
2017-04-29T15:06:54.098Z,63.60
2017-04-29T15:09:22.846Z,63.10
2017-04-29T15:11:51.853Z,61.60
2017-04-29T15:14:20.502Z,60.40
2017-04-29T15:16:49.341Z,60.30
2017-04-29T15:19:17.965Z,61.10
2017-04-29T15:21:46.622Z,60.70
2017-04-29T15:24:15.286Z,60.20
2017-04-29T15:26:43.922Z,61.80
2017-04-29T15:29:12.950Z,63.50
2017-04-29T15:31:41.827Z,62.20
2017-04-29T15:34:10.831Z,62.20
2017-04-29T15:36:39.470Z,62.40
2017-04-29T15:39:08.492Z,62.90
2017-04-29T15:41:37.515Z,63.90
2017-04-29T15:44:06.413Z,64.40
2017-04-29T15:46:35.409Z,64.10
2017-04-29T15:49:04.025Z,63.60
2017-04-29T15:51:32.681Z,63.40
2017-04-29T15:54:01.344Z,63.60
2017-04-29T15:56:30.004Z,61.80
2017-04-29T15:58:58.654Z,61.60
2017-04-29T16:01:27.666Z,60.50
2017-04-29T16:03:56.930Z,60.20
2017-04-29T16:06:25.560Z,59.70
2017-04-29T16:08:54.486Z,59.40
2017-04-29T16:11:23.122Z,58.00
2017-04-29T16:13:52.121Z,57.90
2017-04-29T16:16:20.781Z,59.10
2017-04-29T16:18:49.791Z,58.90
2017-04-29T16:21:18.799Z,57.30
2017-04-29T16:23:47.465Z,57.30
2017-04-29T16:26:16.642Z,57.60
2017-04-29T16:28:45.267Z,57.90
2017-04-29T16:31:14.178Z,57.90
2017-04-29T16:33:42.817Z,59.30
2017-04-29T16:36:11.454Z,60.70
2017-04-29T16:38:40.639Z,61.40
2017-04-29T16:41:09.279Z,61.60
2017-04-29T16:43:37.943Z,59.00
2017-04-29T16:46:06.608Z,58.10
2017-04-29T16:48:35.287Z,58.20
2017-04-29T16:51:03.936Z,57.30
2017-04-29T16:53:32.577Z,58.00
2017-04-29T16:56:01.741Z,57.30
2017-04-29T16:58:30.389Z,58.10
2017-04-29T17:00:59.510Z,58.00
2017-04-29T17:03:28.163Z,58.40
2017-04-29T17:05:56.813Z,58.00
2017-04-29T17:08:26.111Z,58.40
2017-04-29T17:10:54.770Z,58.60
2017-04-29T17:13:23.407Z,58.80
2017-04-29T17:15:52.279Z,59.50
2017-04-29T17:18:21.288Z,59.70
2017-04-29T17:20:49.947Z,59.50
2017-04-29T17:23:19.246Z,59.90
2017-04-29T17:25:48.279Z,60.30
2017-04-29T17:28:16.932Z,60.40
2017-04-29T17:30:45.808Z,60.30
2017-04-29T17:33:14.073Z,60.30
2017-04-29T17:35:42.925Z,60.90
2017-04-29T17:38:11.810Z,61.80
2017-04-29T17:40:40.698Z,62.20
2017-04-29T17:43:09.036Z,62.10
2017-04-29T17:45:37.746Z,64.30
2017-04-29T17:48:06.667Z,64.40
2017-04-29T17:50:36.224Z,62.70
2017-04-29T17:53:04.899Z,63.10
2017-04-29T17:55:33.914Z,63.00
2017-04-29T17:58:02.589Z,62.80
2017-04-29T18:00:30.872Z,62.80
2017-04-29T18:02:59.522Z,63.30
2017-04-29T18:05:28.580Z,63.40
2017-04-29T18:07:57.009Z,63.40
2017-04-29T18:10:25.665Z,64.50
2017-04-29T18:12:53.908Z,64.50
2017-04-29T18:15:22.658Z,64.50
2017-04-29T18:17:50.890Z,64.50
2017-04-29T18:20:19.518Z,64.30
2017-04-29T18:22:49.045Z,64.20
2017-04-29T18:25:17.277Z,64.20
2017-04-29T18:27:45.907Z,64.20
2017-04-29T18:30:15.457Z,64.40
2017-04-29T18:32:44.479Z,64.40
2017-04-29T18:35:13.114Z,64.90
2017-04-29T18:37:42.431Z,65.10
2017-04-29T18:40:11.096Z,65.30
2017-04-29T18:42:39.758Z,65.80
2017-04-29T18:45:08.705Z,68.00
2017-04-29T18:47:36.946Z,68.00
2017-04-29T18:50:06.018Z,67.00
2017-04-29T18:52:35.832Z,67.60
2017-04-29T18:55:04.476Z,68.20
2017-04-29T18:57:34.030Z,68.10
2017-04-29T19:00:03.050Z,67.70
2017-04-29T19:02:31.775Z,67.70
2017-04-29T19:05:00.020Z,68.30
2017-04-29T19:07:30.976Z,68.80
2017-04-29T19:10:00.075Z,69.60
2017-04-29T19:12:29.973Z,69.60
2017-04-29T19:14:58.982Z,69.70
2017-04-29T19:17:28.615Z,70.10
2017-04-29T19:19:57.281Z,69.70
2017-04-29T19:22:25.937Z,70.50
2017-04-29T19:24:55.423Z,70.50
2017-04-29T19:27:25.297Z,71.90
2017-04-29T19:29:53.997Z,71.20
2017-04-29T19:32:23.411Z,71.00
2017-04-29T19:34:53.271Z,71.20
2017-04-29T19:37:24.971Z,71.00
2017-04-29T19:39:54.921Z,71.50
2017-04-29T19:42:24.599Z,71.50
2017-04-29T19:44:53.271Z,70.90
2017-04-29T19:47:22.598Z,71.10
2017-04-29T19:49:52.331Z,71.10
2017-04-29T19:52:20.982Z,68.60
2017-04-29T19:54:50.471Z,68.70
2017-04-29T19:57:19.658Z,69.50
2017-04-29T19:59:49.995Z,69.50
2017-04-29T20:02:20.214Z,70.40
2017-04-29T20:04:50.234Z,70.70
2017-04-29T20:07:18.901Z,71.20
2017-04-29T20:09:50.725Z,71.70
2017-04-29T20:12:21.336Z,72.10
2017-04-29T20:14:50.505Z,72.30
2017-04-29T20:17:19.069Z,72.30
2017-04-29T20:22:25.943Z,72.90
2017-04-29T20:24:55.091Z,73.20
2017-04-29T20:27:24.208Z,72.90
2017-04-29T20:29:53.675Z,73.00
2017-04-29T20:32:22.551Z,73.30
2017-04-29T20:34:53.512Z,73.70
2017-04-29T20:37:22.245Z,74.30
2017-04-29T20:39:50.894Z,74.70
2017-04-29T20:42:19.534Z,74.80
2017-04-29T20:44:49.017Z,75.20
2017-04-29T20:47:17.678Z,75.50
2017-04-29T20:49:46.314Z,75.60
2017-04-29T20:52:14.987Z,75.60
2017-04-29T20:54:43.622Z,76.00
2017-04-29T20:57:12.261Z,75.50
2017-04-29T20:59:41.037Z,75.60
2017-04-29T21:02:09.677Z,75.80
2017-04-29T21:04:38.332Z,76.00
2017-04-29T21:07:07.100Z,76.10
2017-04-29T21:09:35.734Z,76.00
2017-04-29T21:12:04.365Z,76.50
2017-04-29T21:14:33.336Z,76.30
2017-04-29T21:17:01.577Z,76.30
2017-04-29T21:19:31.207Z,75.90
2017-04-29T21:22:00.230Z,76.30
2017-04-29T21:24:28.869Z,76.50
2017-04-29T21:26:57.525Z,76.00
2017-04-29T21:29:27.118Z,76.50
2017-04-29T21:31:55.370Z,76.50
2017-04-29T21:34:24.017Z,76.60
2017-04-29T21:36:52.935Z,77.30
2017-04-29T21:39:21.571Z,78.20
2017-04-29T21:41:50.228Z,78.20
2017-04-29T21:44:19.094Z,78.30
2017-04-29T21:46:47.725Z,78.00
2017-04-29T21:49:16.362Z,78.20
2017-04-29T21:54:19.771Z,78.40
2017-04-29T21:56:48.908Z,78.90
2017-04-29T21:59:17.568Z,78.20
2017-04-29T22:01:46.226Z,78.40
2017-04-29T22:04:15.406Z,78.20
2017-04-29T22:06:44.436Z,78.30
2017-04-29T22:09:13.613Z,78.50
2017-04-29T22:11:43.476Z,78.50
2017-04-29T22:14:12.128Z,79.20
2017-04-29T22:16:40.757Z,79.20
2017-04-29T22:19:10.088Z,79.20
2017-04-29T22:21:38.726Z,79.30
2017-04-29T22:24:07.366Z,79.80
2017-04-29T22:26:36.036Z,79.40
2017-04-29T22:29:04.297Z,79.40
2017-04-29T22:31:33.294Z,79.60
2017-04-29T22:34:02.293Z,79.90
2017-04-29T22:36:31.000Z,79.90
2017-04-29T22:38:59.219Z,79.80
2017-04-29T22:41:27.901Z,80.40
2017-04-29T22:43:56.165Z,80.40
2017-04-29T22:46:24.810Z,80.00
2017-04-29T22:48:53.677Z,80.20
2017-04-29T22:51:22.307Z,80.00
2017-04-29T22:53:50.939Z,80.90
2017-04-29T22:56:20.040Z,80.90
2017-04-29T22:58:48.873Z,81.30
2017-04-29T23:01:17.505Z,81.00
2017-04-29T23:03:46.165Z,81.30
2017-04-29T23:06:14.819Z,80.80
2017-04-29T23:08:43.455Z,81.40
2017-04-29T23:11:11.744Z,81.40
2017-04-29T23:13:40.397Z,81.40
2017-04-29T23:16:09.413Z,81.90
2017-04-29T23:18:38.105Z,81.60
2017-04-29T23:21:06.739Z,81.80
2017-04-29T23:23:35.378Z,81.80
2017-04-29T23:26:04.065Z,82.70
2017-04-29T23:28:32.713Z,82.20
2017-04-29T23:31:01.349Z,81.90
2017-04-29T23:33:30.174Z,82.30
2017-04-29T23:35:59.182Z,82.60
2017-04-29T23:38:27.823Z,82.20
2017-04-29T23:40:56.490Z,81.80
2017-04-29T23:43:25.134Z,81.60
2017-04-29T23:45:53.777Z,82.40
2017-04-29T23:48:22.729Z,82.40
2017-04-29T23:50:51.353Z,83.30
2017-04-29T23:53:20.309Z,82.80
2017-04-29T23:55:48.602Z,82.80
2017-04-29T23:58:17.251Z,82.20
